Endurance — WDF8331 — position and weather

sailwx.info

Track history (hours):
 
Tides and Currents Weather Stations Pressure Air Temp Water Temp Dewpoint Dewpoint Depression Visibility Wind Speed Wind Dir Waves Ship Positions

Endurance

Owner: Enterprise Marine Services, LLC, San Antonio, TX. More information available from US FCC via Universal Licensing System and Coast Guard Vessel Documentation Center.

Last reported at 2017-Oct-16 06:21 UTC. Time now 2017-Oct-19 14:33 UTC.
Position N 29°57' W 090°23'.

Length 26 m; draft 10 m.

Type: . MMSI: 367493740.

Date/timePositionNaut miles runAvg speedWind from/ knotsBaromVisibWave heightAir tempDewpointWater temp
2017-Oct-16 06:21N 29°57' W 090°23'0 0.0
2017-Oct-16 04:58N 29°57' W 090°23'0 0.0
2017-Oct-16 04:29N 29°57' W 090°23'0 0.0
2017-Oct-16 03:57N 29°57' W 090°23'0 0.0
2017-Oct-16 03:31N 29°57' W 090°23'0 0.0
2017-Oct-16 03:01N 29°57' W 090°23'0 0.0
2017-Oct-16 00:46N 29°57' W 090°23'0 0.0
2017-Oct-16 00:03N 29°57' W 090°23'3 0.1
2017-Oct-14 09:41N 29°60' W 090°25'0 0.0
2017-Oct-14 09:30N 29°60' W 090°25'0 0.0
2017-Oct-14 09:01N 29°60' W 090°25'  
2017-Oct-08 14:12N 29°33' W 090°28'1 7.6
2017-Oct-08 14:00N 29°34' W 090°29'2 4.7
2017-Oct-08 13:30N 29°34' W 090°32'0 0.1
2017-Oct-08 13:00N 29°33' W 090°32'0 0.2
2017-Oct-08 12:30N 29°34' W 090°32'0 0.1
2017-Oct-08 12:00N 29°34' W 090°32'0 0.1
2017-Oct-08 11:31N 29°34' W 090°32'0 0.0
2017-Oct-08 11:00N 29°34' W 090°32'0 0.0
2017-Oct-08 10:30N 29°34' W 090°32'0 0.0
2017-Oct-08 10:00N 29°34' W 090°32'0 0.0
2017-Oct-08 09:31N 29°34' W 090°32'0 0.0
2017-Oct-08 09:01N 29°34' W 090°32'0 0.0
2017-Oct-08 08:30N 29°34' W 090°32'0 0.0
2017-Oct-08 08:01N 29°34' W 090°32'0 0.0
2017-Oct-08 07:31N 29°34' W 090°32'0 0.0
2017-Oct-08 07:01N 29°34' W 090°32'0 0.0
2017-Oct-08 06:31N 29°34' W 090°32'0 0.0
2017-Oct-08 06:00N 29°34' W 090°32'0 0.0
2017-Oct-08 05:30N 29°34' W 090°32'0 0.0
2017-Oct-08 05:00N 29°34' W 090°32'0 0.0
2017-Oct-08 04:31N 29°34' W 090°32'0 0.0
2017-Oct-08 04:01N 29°34' W 090°32'0 0.0
2017-Oct-08 03:31N 29°34' W 090°32'0 0.0
2017-Oct-08 03:01N 29°34' W 090°32'0 0.0
2017-Oct-08 02:31N 29°34' W 090°32'0 0.0
2017-Oct-08 02:01N 29°34' W 090°32'0 0.0
2017-Oct-08 01:30N 29°34' W 090°32'0 0.0
2017-Oct-08 01:01N 29°34' W 090°32'0 0.0
2017-Oct-08 00:31N 29°34' W 090°32'0 0.0
2017-Oct-08 00:00N 29°34' W 090°32'0 0.0
2017-Oct-07 23:31N 29°34' W 090°32'0 0.0
2017-Oct-07 23:01N 29°34' W 090°32'0 0.0
2017-Oct-07 22:30N 29°34' W 090°32'0 0.0
2017-Oct-07 22:00N 29°34' W 090°32'0 0.0
2017-Oct-07 21:30N 29°34' W 090°32'0 0.0
2017-Oct-07 21:01N 29°34' W 090°32'0 0.0
2017-Oct-07 20:30N 29°34' W 090°32'0 0.0
2017-Oct-07 20:01N 29°34' W 090°32'0 0.0
2017-Oct-07 19:31N 29°34' W 090°32'0 0.0
2017-Oct-07 19:00N 29°34' W 090°32'0 0.0
2017-Oct-07 18:31N 29°34' W 090°32'0 0.0
2017-Oct-07 18:01N 29°34' W 090°32'0 0.0
2017-Oct-07 17:31N 29°34' W 090°32'0 0.0
2017-Oct-07 17:01N 29°34' W 090°32'0 0.0
2017-Oct-07 16:30N 29°34' W 090°32'0 0.0
2017-Oct-07 16:01N 29°34' W 090°32'0 0.0
2017-Oct-07 15:31N 29°34' W 090°32'0 0.0
2017-Oct-07 15:01N 29°34' W 090°32'0 0.0
2017-Oct-07 14:31N 29°34' W 090°32'0 0.0
2017-Oct-07 14:00N 29°34' W 090°32'0 0.0
2017-Oct-07 13:31N 29°34' W 090°32'0 0.0
2017-Oct-07 13:00N 29°34' W 090°32'0 0.0
2017-Oct-07 12:31N 29°34' W 090°32'0 0.1
2017-Oct-07 12:01N 29°34' W 090°32'0 0.1
2017-Oct-07 11:30N 29°34' W 090°32'0 0.0
2017-Oct-07 11:00N 29°34' W 090°32'0 0.0
2017-Oct-07 10:30N 29°34' W 090°32'0 0.0
2017-Oct-07 10:01N 29°34' W 090°32'0 0.1
2017-Oct-07 09:31N 29°34' W 090°32'0 0.2
2017-Oct-07 09:01N 29°34' W 090°32'2 4.0
2017-Oct-07 08:30N 29°34' W 090°35'3 6.0
2017-Oct-07 08:00N 29°35' W 090°38'3 6.6
2017-Oct-07 07:31N 29°36' W 090°41'2 4.4
2017-Oct-07 07:00N 29°35' W 090°43'1 2.4
2017-Oct-07 06:31N 29°34' W 090°43'0 0.0
2017-Oct-07 06:01N 29°34' W 090°43'0 0.2
2017-Oct-07 05:31N 29°34' W 090°43'0 0.2
2017-Oct-07 05:00N 29°34' W 090°43'1 1.4
2017-Oct-07 04:30N 29°33' W 090°42'1 2.4
2017-Oct-07 04:01N 29°34' W 090°43'2 3.1
2017-Oct-07 03:31N 29°34' W 090°45'3 5.9
2017-Oct-07 03:00N 29°32' W 090°48'65 6.1
2017-Oct-06 16:18N 29°50' W 091°60'2 7.7
2017-Oct-06 16:00N 29°49' W 092°02'4 7.1
2017-Oct-06 15:30N 29°48' W 092°06'3 6.1
2017-Oct-06 15:00N 29°47' W 092°09'2 4.8
2017-Oct-06 14:30N 29°47' W 092°12'0 0.7
2017-Oct-06 14:00N 29°47' W 092°13'1 1.9
2017-Oct-06 13:30N 29°48' W 092°14'2 3.8
2017-Oct-06 13:00N 29°48' W 092°16'3 6.3
2017-Oct-06 12:28N 29°50' W 092°19'1 1.1
2017-Oct-06 12:00N 29°50' W 092°19'  
Track history (hours):
 
Tides and Currents Weather Stations Pressure Air Temp Water Temp Dewpoint Dewpoint Depression Visibility Wind Speed Wind Dir Waves Ship Positions

Endurance

Owner: Enterprise Marine Services, LLC, San Antonio, TX. More information available from US FCC via Universal Licensing System and Coast Guard Vessel Documentation Center.

Last reported at 2017-Oct-16 06:21 UTC. Time now 2017-Oct-19 14:33 UTC.
Position N 29°57' W 090°23'.

Length 26 m; draft 10 m.

Type: . MMSI: 367493740.

Date/timePositionNaut miles runAvg speedWind from/ knotsBaromVisibWave heightAir tempDewpointWater temp
2017-Oct-16 06:21N 29°57' W 090°23'0 0.0
2017-Oct-16 04:58N 29°57' W 090°23'0 0.0
2017-Oct-16 04:29N 29°57' W 090°23'0 0.0
2017-Oct-16 03:57N 29°57' W 090°23'0 0.0
2017-Oct-16 03:31N 29°57' W 090°23'0 0.0
2017-Oct-16 03:01N 29°57' W 090°23'0 0.0
2017-Oct-16 00:46N 29°57' W 090°23'0 0.0
2017-Oct-16 00:03N 29°57' W 090°23'3 0.1
2017-Oct-14 09:41N 29°60' W 090°25'0 0.0
2017-Oct-14 09:30N 29°60' W 090°25'0 0.0
2017-Oct-14 09:01N 29°60' W 090°25'  
2017-Oct-08 14:12N 29°33' W 090°28'1 7.6
2017-Oct-08 14:00N 29°34' W 090°29'2 4.7
2017-Oct-08 13:30N 29°34' W 090°32'0 0.1
2017-Oct-08 13:00N 29°33' W 090°32'0 0.2
2017-Oct-08 12:30N 29°34' W 090°32'0 0.1
2017-Oct-08 12:00N 29°34' W 090°32'0 0.1
2017-Oct-08 11:31N 29°34' W 090°32'0 0.0
2017-Oct-08 11:00N 29°34' W 090°32'0 0.0
2017-Oct-08 10:30N 29°34' W 090°32'0 0.0
2017-Oct-08 10:00N 29°34' W 090°32'0 0.0
2017-Oct-08 09:31N 29°34' W 090°32'0 0.0
2017-Oct-08 09:01N 29°34' W 090°32'0 0.0
2017-Oct-08 08:30N 29°34' W 090°32'0 0.0
2017-Oct-08 08:01N 29°34' W 090°32'0 0.0
2017-Oct-08 07:31N 29°34' W 090°32'0 0.0
2017-Oct-08 07:01N 29°34' W 090°32'0 0.0
2017-Oct-08 06:31N 29°34' W 090°32'0 0.0
2017-Oct-08 06:00N 29°34' W 090°32'0 0.0
2017-Oct-08 05:30N 29°34' W 090°32'0 0.0
2017-Oct-08 05:00N 29°34' W 090°32'0 0.0
2017-Oct-08 04:31N 29°34' W 090°32'0 0.0
2017-Oct-08 04:01N 29°34' W 090°32'0 0.0
2017-Oct-08 03:31N 29°34' W 090°32'0 0.0
2017-Oct-08 03:01N 29°34' W 090°32'0 0.0
2017-Oct-08 02:31N 29°34' W 090°32'0 0.0
2017-Oct-08 02:01N 29°34' W 090°32'0 0.0
2017-Oct-08 01:30N 29°34' W 090°32'0 0.0
2017-Oct-08 01:01N 29°34' W 090°32'0 0.0
2017-Oct-08 00:31N 29°34' W 090°32'0 0.0
2017-Oct-08 00:00N 29°34' W 090°32'0 0.0
2017-Oct-07 23:31N 29°34' W 090°32'0 0.0
2017-Oct-07 23:01N 29°34' W 090°32'0 0.0
2017-Oct-07 22:30N 29°34' W 090°32'0 0.0
2017-Oct-07 22:00N 29°34' W 090°32'0 0.0
2017-Oct-07 21:30N 29°34' W 090°32'0 0.0
2017-Oct-07 21:01N 29°34' W 090°32'0 0.0
2017-Oct-07 20:30N 29°34' W 090°32'0 0.0
2017-Oct-07 20:01N 29°34' W 090°32'0 0.0
2017-Oct-07 19:31N 29°34' W 090°32'0 0.0
2017-Oct-07 19:00N 29°34' W 090°32'0 0.0
2017-Oct-07 18:31N 29°34' W 090°32'0 0.0
2017-Oct-07 18:01N 29°34' W 090°32'0 0.0
2017-Oct-07 17:31N 29°34' W 090°32'0 0.0
2017-Oct-07 17:01N 29°34' W 090°32'0 0.0
2017-Oct-07 16:30N 29°34' W 090°32'0 0.0
2017-Oct-07 16:01N 29°34' W 090°32'0 0.0
2017-Oct-07 15:31N 29°34' W 090°32'0 0.0
2017-Oct-07 15:01N 29°34' W 090°32'0 0.0
2017-Oct-07 14:31N 29°34' W 090°32'0 0.0
2017-Oct-07 14:00N 29°34' W 090°32'0 0.0
2017-Oct-07 13:31N 29°34' W 090°32'0 0.0
2017-Oct-07 13:00N 29°34' W 090°32'0 0.0
2017-Oct-07 12:31N 29°34' W 090°32'0 0.1
2017-Oct-07 12:01N 29°34' W 090°32'0 0.1
2017-Oct-07 11:30N 29°34' W 090°32'0 0.0
2017-Oct-07 11:00N 29°34' W 090°32'0 0.0
2017-Oct-07 10:30N 29°34' W 090°32'0 0.0
2017-Oct-07 10:01N 29°34' W 090°32'0 0.1
2017-Oct-07 09:31N 29°34' W 090°32'0 0.2
2017-Oct-07 09:01N 29°34' W 090°32'2 4.0
2017-Oct-07 08:30N 29°34' W 090°35'3 6.0
2017-Oct-07 08:00N 29°35' W 090°38'3 6.6
2017-Oct-07 07:31N 29°36' W 090°41'2 4.4
2017-Oct-07 07:00N 29°35' W 090°43'1 2.4
2017-Oct-07 06:31N 29°34' W 090°43'0 0.0
2017-Oct-07 06:01N 29°34' W 090°43'0 0.2
2017-Oct-07 05:31N 29°34' W 090°43'0 0.2
2017-Oct-07 05:00N 29°34' W 090°43'1 1.4
2017-Oct-07 04:30N 29°33' W 090°42'1 2.4
2017-Oct-07 04:01N 29°34' W 090°43'2 3.1
2017-Oct-07 03:31N 29°34' W 090°45'3 5.9
2017-Oct-07 03:00N 29°32' W 090°48'65 6.1
2017-Oct-06 16:18N 29°50' W 091°60'2 7.7
2017-Oct-06 16:00N 29°49' W 092°02'4 7.1
2017-Oct-06 15:30N 29°48' W 092°06'3 6.1
2017-Oct-06 15:00N 29°47' W 092°09'2 4.8
2017-Oct-06 14:30N 29°47' W 092°12'0 0.7
2017-Oct-06 14:00N 29°47' W 092°13'1 1.9
2017-Oct-06 13:30N 29°48' W 092°14'2 3.8
2017-Oct-06 13:00N 29°48' W 092°16'3 6.3
2017-Oct-06 12:28N 29°50' W 092°19'1 1.1
2017-Oct-06 12:00N 29°50' W 092°19'  

Dump ship's entire track history